sensor_id;sensor_type;location;lat;lon;timestamp;P1;durP1;ratioP1;P2;durP2;ratioP2
70967;SDS011;58629;48.808;8.820;2023-07-08T00:00:39;4.05;;;2.70;;
70967;SDS011;58629;48.808;8.820;2023-07-08T00:03:04;4.63;;;2.50;;
70967;SDS011;58629;48.808;8.820;2023-07-08T00:05:30;3.77;;;2.40;;
70967;SDS011;58629;48.808;8.820;2023-07-08T00:07:55;3.63;;;2.38;;
70967;SDS011;58629;48.808;8.820;2023-07-08T00:10:21;3.97;;;2.50;;
70967;SDS011;58629;48.808;8.820;2023-07-08T00:12:49;3.67;;;2.20;;
70967;SDS011;58629;48.808;8.820;2023-07-08T00:15:17;3.30;;;2.10;;
70967;SDS011;58629;48.808;8.820;2023-07-08T00:17:43;3.63;;;2.50;;
70967;SDS011;58629;48.808;8.820;2023-07-08T00:20:19;3.88;;;2.40;;
70967;SDS011;58629;48.808;8.820;2023-07-08T00:22:47;3.80;;;2.42;;
70967;SDS011;58629;48.808;8.820;2023-07-08T00:25:15;3.08;;;1.80;;
70967;SDS011;58629;48.808;8.820;2023-07-08T00:27:46;3.88;;;2.00;;
70967;SDS011;58629;48.808;8.820;2023-07-08T00:32:48;5.22;;;3.20;;
70967;SDS011;58629;48.808;8.820;2023-07-08T00:35:18;5.97;;;3.50;;
70967;SDS011;58629;48.808;8.820;2023-07-08T00:38:10;5.63;;;3.22;;
70967;SDS011;58629;48.808;8.820;2023-07-08T00:40:48;5.32;;;3.20;;
70967;SDS011;58629;48.808;8.820;2023-07-08T00:43:15;5.43;;;3.38;;
70967;SDS011;58629;48.808;8.820;2023-07-08T00:45:43;5.22;;;3.00;;
70967;SDS011;58629;48.808;8.820;2023-07-08T00:50:49;5.18;;;2.80;;
70967;SDS011;58629;48.808;8.820;2023-07-08T00:53:26;3.90;;;2.45;;
70967;SDS011;58629;48.808;8.820;2023-07-08T00:58:33;5.07;;;2.75;;
70967;SDS011;58629;48.808;8.820;2023-07-08T01:01:03;4.55;;;2.60;;
70967;SDS011;58629;48.808;8.820;2023-07-08T01:03:30;4.55;;;2.80;;
70967;SDS011;58629;48.808;8.820;2023-07-08T01:05:56;9.15;;;4.20;;
70967;SDS011;58629;48.808;8.820;2023-07-08T01:08:24;6.25;;;4.18;;
70967;SDS011;58629;48.808;8.820;2023-07-08T01:10:55;5.90;;;3.47;;
70967;SDS011;58629;48.808;8.820;2023-07-08T01:13:26;5.57;;;3.20;;
70967;SDS011;58629;48.808;8.820;2023-07-08T01:15:52;5.18;;;3.15;;
70967;SDS011;58629;48.808;8.820;2023-07-08T01:18:18;4.90;;;3.40;;
70967;SDS011;58629;48.808;8.820;2023-07-08T01:20:46;5.00;;;3.03;;
70967;SDS011;58629;48.808;8.820;2023-07-08T01:23:15;5.43;;;3.13;;
70967;SDS011;58629;48.808;8.820;2023-07-08T01:25:41;4.20;;;2.72;;
70967;SDS011;58629;48.808;8.820;2023-07-08T01:28:08;4.93;;;2.77;;
70967;SDS011;58629;48.808;8.820;2023-07-08T01:30:34;6.15;;;3.20;;
70967;SDS011;58629;48.808;8.820;2023-07-08T01:33:01;5.25;;;3.08;;
70967;SDS011;58629;48.808;8.820;2023-07-08T01:35:32;3.85;;;2.60;;
70967;SDS011;58629;48.808;8.820;2023-07-08T01:37:58;4.13;;;2.60;;
70967;SDS011;58629;48.808;8.820;2023-07-08T01:42:54;4.45;;;2.65;;
70967;SDS011;58629;48.808;8.820;2023-07-08T01:45:20;4.20;;;2.35;;
70967;SDS011;58629;48.808;8.820;2023-07-08T01:47:52;3.97;;;2.70;;
70967;SDS011;58629;48.808;8.820;2023-07-08T01:50:21;5.72;;;3.55;;
70967;SDS011;58629;48.808;8.820;2023-07-08T01:52:48;5.57;;;3.10;;
70967;SDS011;58629;48.808;8.820;2023-07-08T01:55:15;4.65;;;2.63;;
70967;SDS011;58629;48.808;8.820;2023-07-08T01:57:46;4.32;;;2.70;;
70967;SDS011;58629;48.808;8.820;2023-07-08T02:00:11;4.10;;;2.73;;
70967;SDS011;58629;48.808;8.820;2023-07-08T02:02:37;4.47;;;2.65;;
70967;SDS011;58629;48.808;8.820;2023-07-08T02:05:03;4.10;;;2.70;;
70967;SDS011;58629;48.808;8.820;2023-07-08T02:07:28;3.60;;;2.20;;
70967;SDS011;58629;48.808;8.820;2023-07-08T02:09:54;3.90;;;2.50;;
70967;SDS011;58629;48.808;8.820;2023-07-08T02:12:19;3.97;;;2.47;;
70967;SDS011;58629;48.808;8.820;2023-07-08T02:14:44;3.80;;;2.27;;
70967;SDS011;58629;48.808;8.820;2023-07-08T02:17:10;3.93;;;2.40;;
70967;SDS011;58629;48.808;8.820;2023-07-08T02:19:35;3.43;;;2.40;;
70967;SDS011;58629;48.808;8.820;2023-07-08T02:22:00;3.33;;;2.13;;
70967;SDS011;58629;48.808;8.820;2023-07-08T02:24:25;3.03;;;2.03;;
70967;SDS011;58629;48.808;8.820;2023-07-08T02:26:51;3.17;;;2.08;;
70967;SDS011;58629;48.808;8.820;2023-07-08T02:29:17;3.40;;;2.30;;
70967;SDS011;58629;48.808;8.820;2023-07-08T02:31:42;4.57;;;2.70;;
70967;SDS011;58629;48.808;8.820;2023-07-08T02:34:07;5.73;;;3.17;;
70967;SDS011;58629;48.808;8.820;2023-07-08T02:36:33;5.53;;;3.50;;
70967;SDS011;58629;48.808;8.820;2023-07-08T02:38:59;5.97;;;3.20;;
70967;SDS011;58629;48.808;8.820;2023-07-08T02:41:25;5.22;;;3.20;;
70967;SDS011;58629;48.808;8.820;2023-07-08T02:43:50;7.57;;;4.00;;
70967;SDS011;58629;48.808;8.820;2023-07-08T02:46:15;8.20;;;4.07;;
70967;SDS011;58629;48.808;8.820;2023-07-08T02:48:41;5.67;;;3.33;;
70967;SDS011;58629;48.808;8.820;2023-07-08T02:51:06;5.73;;;3.50;;
70967;SDS011;58629;48.808;8.820;2023-07-08T02:53:33;5.70;;;3.20;;
70967;SDS011;58629;48.808;8.820;2023-07-08T02:55:59;5.30;;;3.20;;
70967;SDS011;58629;48.808;8.820;2023-07-08T02:58:24;5.37;;;3.20;;
70967;SDS011;58629;48.808;8.820;2023-07-08T03:00:56;4.68;;;2.90;;
70967;SDS011;58629;48.808;8.820;2023-07-08T03:03:26;4.03;;;2.83;;
70967;SDS011;58629;48.808;8.820;2023-07-08T03:06:00;5.22;;;3.10;;
70967;SDS011;58629;48.808;8.820;2023-07-08T03:08:28;5.38;;;2.80;;
70967;SDS011;58629;48.808;8.820;2023-07-08T03:10:55;4.10;;;2.55;;
70967;SDS011;58629;48.808;8.820;2023-07-08T03:13:22;4.43;;;2.90;;
70967;SDS011;58629;48.808;8.820;2023-07-08T03:15:48;4.75;;;2.83;;
70967;SDS011;58629;48.808;8.820;2023-07-08T03:18:13;5.27;;;3.00;;
70967;SDS011;58629;48.808;8.820;2023-07-08T03:20:41;5.17;;;3.10;;
70967;SDS011;58629;48.808;8.820;2023-07-08T03:23:09;5.82;;;3.50;;
70967;SDS011;58629;48.808;8.820;2023-07-08T03:25:35;5.22;;;3.45;;
70967;SDS011;58629;48.808;8.820;2023-07-08T03:28:01;7.10;;;3.57;;
70967;SDS011;58629;48.808;8.820;2023-07-08T03:30:26;5.07;;;3.40;;
70967;SDS011;58629;48.808;8.820;2023-07-08T03:32:51;4.75;;;3.20;;
70967;SDS011;58629;48.808;8.820;2023-07-08T03:35:20;5.10;;;3.57;;
70967;SDS011;58629;48.808;8.820;2023-07-08T03:37:47;5.60;;;3.72;;
70967;SDS011;58629;48.808;8.820;2023-07-08T03:40:12;7.13;;;3.70;;
70967;SDS011;58629;48.808;8.820;2023-07-08T03:42:38;6.00;;;3.72;;
70967;SDS011;58629;48.808;8.820;2023-07-08T03:45:04;5.37;;;3.70;;
70967;SDS011;58629;48.808;8.820;2023-07-08T03:47:29;8.25;;;4.65;;
70967;SDS011;58629;48.808;8.820;2023-07-08T03:49:55;5.90;;;3.70;;
70967;SDS011;58629;48.808;8.820;2023-07-08T03:52:20;5.73;;;3.67;;
70967;SDS011;58629;48.808;8.820;2023-07-08T03:54:45;9.57;;;4.50;;
70967;SDS011;58629;48.808;8.820;2023-07-08T03:57:11;7.15;;;4.05;;
70967;SDS011;58629;48.808;8.820;2023-07-08T03:59:37;6.07;;;3.72;;
70967;SDS011;58629;48.808;8.820;2023-07-08T04:02:02;5.60;;;3.43;;
70967;SDS011;58629;48.808;8.820;2023-07-08T04:04:28;6.13;;;3.70;;
70967;SDS011;58629;48.808;8.820;2023-07-08T04:06:53;6.28;;;3.92;;
70967;SDS011;58629;48.808;8.820;2023-07-08T04:09:19;5.93;;;3.90;;
70967;SDS011;58629;48.808;8.820;2023-07-08T04:11:45;5.78;;;3.50;;
70967;SDS011;58629;48.808;8.820;2023-07-08T04:14:10;7.50;;;4.00;;
70967;SDS011;58629;48.808;8.820;2023-07-08T04:16:47;6.17;;;4.20;;
70967;SDS011;58629;48.808;8.820;2023-07-08T04:19:16;4.95;;;3.45;;
70967;SDS011;58629;48.808;8.820;2023-07-08T04:21:42;5.28;;;3.30;;
70967;SDS011;58629;48.808;8.820;2023-07-08T04:24:10;5.13;;;3.00;;
70967;SDS011;58629;48.808;8.820;2023-07-08T04:26:36;5.47;;;3.20;;
70967;SDS011;58629;48.808;8.820;2023-07-08T04:29:04;4.72;;;3.10;;
70967;SDS011;58629;48.808;8.820;2023-07-08T04:31:31;5.40;;;3.20;;
70967;SDS011;58629;48.808;8.820;2023-07-08T04:33:57;6.70;;;4.00;;
70967;SDS011;58629;48.808;8.820;2023-07-08T04:36:22;6.90;;;4.00;;
70967;SDS011;58629;48.808;8.820;2023-07-08T04:38:49;6.85;;;3.70;;
70967;SDS011;58629;48.808;8.820;2023-07-08T04:41:15;5.37;;;3.33;;
70967;SDS011;58629;48.808;8.820;2023-07-08T04:43:40;6.57;;;3.70;;
70967;SDS011;58629;48.808;8.820;2023-07-08T04:46:10;6.77;;;3.80;;
70967;SDS011;58629;48.808;8.820;2023-07-08T04:48:44;6.80;;;3.90;;
70967;SDS011;58629;48.808;8.820;2023-07-08T04:51:10;5.70;;;3.75;;
70967;SDS011;58629;48.808;8.820;2023-07-08T04:53:36;6.27;;;4.00;;
70967;SDS011;58629;48.808;8.820;2023-07-08T04:56:01;6.47;;;3.93;;
70967;SDS011;58629;48.808;8.820;2023-07-08T04:58:26;6.65;;;4.15;;
70967;SDS011;58629;48.808;8.820;2023-07-08T05:00:52;6.63;;;4.10;;
70967;SDS011;58629;48.808;8.820;2023-07-08T05:03:17;7.30;;;4.50;;
70967;SDS011;58629;48.808;8.820;2023-07-08T05:05:42;6.33;;;3.90;;
70967;SDS011;58629;48.808;8.820;2023-07-08T05:08:08;8.83;;;4.83;;
70967;SDS011;58629;48.808;8.820;2023-07-08T05:10:33;7.10;;;4.13;;
70967;SDS011;58629;48.808;8.820;2023-07-08T05:12:59;6.30;;;4.00;;
70967;SDS011;58629;48.808;8.820;2023-07-08T05:15:24;5.27;;;3.20;;
70967;SDS011;58629;48.808;8.820;2023-07-08T05:17:50;5.55;;;3.60;;
70967;SDS011;58629;48.808;8.820;2023-07-08T05:20:16;7.68;;;4.30;;
70967;SDS011;58629;48.808;8.820;2023-07-08T05:22:43;7.03;;;3.90;;
70967;SDS011;58629;48.808;8.820;2023-07-08T05:25:10;6.45;;;3.80;;
70967;SDS011;58629;48.808;8.820;2023-07-08T05:27:36;7.15;;;4.22;;
70967;SDS011;58629;48.808;8.820;2023-07-08T05:30:02;6.20;;;3.90;;
70967;SDS011;58629;48.808;8.820;2023-07-08T05:32:28;6.60;;;4.18;;
70967;SDS011;58629;48.808;8.820;2023-07-08T05:34:54;7.40;;;4.17;;
70967;SDS011;58629;48.808;8.820;2023-07-08T05:37:19;6.23;;;4.00;;
70967;SDS011;58629;48.808;8.820;2023-07-08T05:39:49;8.70;;;4.47;;
70967;SDS011;58629;48.808;8.820;2023-07-08T05:42:15;6.97;;;4.10;;
70967;SDS011;58629;48.808;8.820;2023-07-08T05:44:41;7.00;;;3.83;;
70967;SDS011;58629;48.808;8.820;2023-07-08T05:47:06;5.90;;;3.73;;
70967;SDS011;58629;48.808;8.820;2023-07-08T05:49:31;7.00;;;4.50;;
70967;SDS011;58629;48.808;8.820;2023-07-08T05:51:57;8.43;;;4.30;;
70967;SDS011;58629;48.808;8.820;2023-07-08T05:54:22;15.17;;;9.27;;
70967;SDS011;58629;48.808;8.820;2023-07-08T05:56:47;9.15;;;5.95;;
70967;SDS011;58629;48.808;8.820;2023-07-08T05:59:13;7.32;;;4.43;;
70967;SDS011;58629;48.808;8.820;2023-07-08T06:01:38;5.67;;;3.30;;
70967;SDS011;58629;48.808;8.820;2023-07-08T06:04:03;5.30;;;3.30;;
70967;SDS011;58629;48.808;8.820;2023-07-08T06:06:29;7.27;;;4.10;;
70967;SDS011;58629;48.808;8.820;2023-07-08T06:08:54;5.70;;;3.87;;
70967;SDS011;58629;48.808;8.820;2023-07-08T06:11:20;5.47;;;3.90;;
70967;SDS011;58629;48.808;8.820;2023-07-08T06:13:47;5.10;;;3.70;;
70967;SDS011;58629;48.808;8.820;2023-07-08T06:16:12;4.90;;;3.30;;
70967;SDS011;58629;48.808;8.820;2023-07-08T06:18:37;4.37;;;3.03;;
70967;SDS011;58629;48.808;8.820;2023-07-08T06:21:03;4.60;;;3.10;;
70967;SDS011;58629;48.808;8.820;2023-07-08T06:23:28;5.97;;;3.50;;
70967;SDS011;58629;48.808;8.820;2023-07-08T06:25:54;4.53;;;2.97;;
70967;SDS011;58629;48.808;8.820;2023-07-08T06:28:20;5.68;;;3.30;;
70967;SDS011;58629;48.808;8.820;2023-07-08T06:30:45;5.40;;;3.30;;
70967;SDS011;58629;48.808;8.820;2023-07-08T06:33:11;5.23;;;3.50;;
70967;SDS011;58629;48.808;8.820;2023-07-08T06:35:37;4.65;;;3.25;;
70967;SDS011;58629;48.808;8.820;2023-07-08T06:38:05;4.95;;;3.38;;
70967;SDS011;58629;48.808;8.820;2023-07-08T06:40:31;5.90;;;3.75;;
70967;SDS011;58629;48.808;8.820;2023-07-08T06:42:57;5.53;;;3.70;;
70967;SDS011;58629;48.808;8.820;2023-07-08T06:45:22;7.23;;;3.30;;
70967;SDS011;58629;48.808;8.820;2023-07-08T06:47:47;6.00;;;3.10;;
70967;SDS011;58629;48.808;8.820;2023-07-08T06:50:13;5.17;;;2.97;;
70967;SDS011;58629;48.808;8.820;2023-07-08T06:52:38;4.40;;;3.20;;
70967;SDS011;58629;48.808;8.820;2023-07-08T06:55:05;18.80;;;3.80;;
70967;SDS011;58629;48.808;8.820;2023-07-08T06:57:32;6.20;;;3.35;;
70967;SDS011;58629;48.808;8.820;2023-07-08T06:59:58;103.27;;;10.07;;
70967;SDS011;58629;48.808;8.820;2023-07-08T07:02:23;9.70;;;3.50;;
70967;SDS011;58629;48.808;8.820;2023-07-08T07:04:48;9.50;;;3.00;;
70967;SDS011;58629;48.808;8.820;2023-07-08T07:07:14;9.37;;;2.80;;
70967;SDS011;58629;48.808;8.820;2023-07-08T07:09:39;9.40;;;3.13;;
70967;SDS011;58629;48.808;8.820;2023-07-08T07:12:07;7.03;;;2.90;;
70967;SDS011;58629;48.808;8.820;2023-07-08T07:14:33;3.95;;;2.60;;
70967;SDS011;58629;48.808;8.820;2023-07-08T07:16:59;4.27;;;2.30;;
70967;SDS011;58629;48.808;8.820;2023-07-08T07:19:24;3.33;;;2.50;;
70967;SDS011;58629;48.808;8.820;2023-07-08T07:21:50;3.80;;;2.50;;
70967;SDS011;58629;48.808;8.820;2023-07-08T07:24:15;4.47;;;2.20;;
70967;SDS011;58629;48.808;8.820;2023-07-08T07:26:40;2.87;;;2.40;;
70967;SDS011;58629;48.808;8.820;2023-07-08T07:29:06;2.83;;;2.30;;
70967;SDS011;58629;48.808;8.820;2023-07-08T07:31:31;2.78;;;2.10;;
70967;SDS011;58629;48.808;8.820;2023-07-08T07:33:58;2.87;;;2.07;;
70967;SDS011;58629;48.808;8.820;2023-07-08T07:36:24;2.78;;;2.00;;
70967;SDS011;58629;48.808;8.820;2023-07-08T07:38:50;3.70;;;2.50;;
70967;SDS011;58629;48.808;8.820;2023-07-08T07:41:16;38.38;;;4.47;;
70967;SDS011;58629;48.808;8.820;2023-07-08T07:43:41;25.17;;;4.07;;
70967;SDS011;58629;48.808;8.820;2023-07-08T07:46:07;7.80;;;2.70;;
70967;SDS011;58629;48.808;8.820;2023-07-08T07:48:33;3.20;;;2.20;;
70967;SDS011;58629;48.808;8.820;2023-07-08T07:50:58;4.63;;;2.20;;
70967;SDS011;58629;48.808;8.820;2023-07-08T07:53:24;5.87;;;2.50;;
70967;SDS011;58629;48.808;8.820;2023-07-08T07:55:55;3.83;;;2.07;;
70967;SDS011;58629;48.808;8.820;2023-07-08T07:58:22;3.60;;;2.00;;
70967;SDS011;58629;48.808;8.820;2023-07-08T08:00:47;3.30;;;1.87;;
70967;SDS011;58629;48.808;8.820;2023-07-08T08:03:12;3.50;;;2.00;;
70967;SDS011;58629;48.808;8.820;2023-07-08T08:05:38;3.73;;;2.00;;
70967;SDS011;58629;48.808;8.820;2023-07-08T08:08:03;3.70;;;2.30;;
70967;SDS011;58629;48.808;8.820;2023-07-08T08:10:29;3.57;;;1.90;;
70967;SDS011;58629;48.808;8.820;2023-07-08T08:12:54;3.23;;;1.70;;
70967;SDS011;58629;48.808;8.820;2023-07-08T08:15:21;4.40;;;2.13;;
70967;SDS011;58629;48.808;8.820;2023-07-08T08:17:47;3.10;;;2.03;;
70967;SDS011;58629;48.808;8.820;2023-07-08T08:20:14;2.38;;;1.90;;
70967;SDS011;58629;48.808;8.820;2023-07-08T08:22:39;2.47;;;1.73;;
70967;SDS011;58629;48.808;8.820;2023-07-08T08:25:05;5.97;;;3.40;;
70967;SDS011;58629;48.808;8.820;2023-07-08T08:27:30;4.37;;;2.57;;
70967;SDS011;58629;48.808;8.820;2023-07-08T08:29:55;3.20;;;2.00;;
70967;SDS011;58629;48.808;8.820;2023-07-08T08:32:21;2.30;;;1.70;;
70967;SDS011;58629;48.808;8.820;2023-07-08T08:34:46;2.60;;;1.70;;
70967;SDS011;58629;48.808;8.820;2023-07-08T08:37:12;3.58;;;1.85;;
70967;SDS011;58629;48.808;8.820;2023-07-08T08:39:37;4.00;;;1.90;;
70967;SDS011;58629;48.808;8.820;2023-07-08T08:42:02;2.30;;;1.70;;
70967;SDS011;58629;48.808;8.820;2023-07-08T08:44:30;2.73;;;1.73;;
70967;SDS011;58629;48.808;8.820;2023-07-08T08:49:57;3.65;;;1.90;;
70967;SDS011;58629;48.808;8.820;2023-07-08T08:52:44;2.85;;;1.70;;
70967;SDS011;58629;48.808;8.820;2023-07-08T08:55:11;2.30;;;1.63;;
70967;SDS011;58629;48.808;8.820;2023-07-08T08:57:57;2.78;;;1.83;;
70967;SDS011;58629;48.808;8.820;2023-07-08T09:06:07;3.13;;;1.80;;
70967;SDS011;58629;48.808;8.820;2023-07-08T09:08:38;1.90;;;1.50;;
70967;SDS011;58629;48.808;8.820;2023-07-08T09:11:10;2.72;;;1.42;;
70967;SDS011;58629;48.808;8.820;2023-07-08T09:13:42;1.42;;;1.20;;
70967;SDS011;58629;48.808;8.820;2023-07-08T09:18:59;4.60;;;1.77;;
70967;SDS011;58629;48.808;8.820;2023-07-08T09:21:45;1.60;;;1.50;;
70967;SDS011;58629;48.808;8.820;2023-07-08T09:27:23;2.15;;;1.50;;
70967;SDS011;58629;48.808;8.820;2023-07-08T09:29:48;2.90;;;1.50;;
70967;SDS011;58629;48.808;8.820;2023-07-08T09:32:15;1.60;;;1.37;;
70967;SDS011;58629;48.808;8.820;2023-07-08T09:34:46;2.95;;;1.50;;
70967;SDS011;58629;48.808;8.820;2023-07-08T09:37:40;2.60;;;1.50;;
70967;SDS011;58629;48.808;8.820;2023-07-08T09:40:18;2.90;;;1.60;;
70967;SDS011;58629;48.808;8.820;2023-07-08T09:42:51;2.20;;;1.23;;
70967;SDS011;58629;48.808;8.820;2023-07-08T09:45:19;1.90;;;1.40;;
70967;SDS011;58629;48.808;8.820;2023-07-08T09:47:46;1.60;;;1.30;;
70967;SDS011;58629;48.808;8.820;2023-07-08T09:50:16;3.05;;;1.42;;
70967;SDS011;58629;48.808;8.820;2023-07-08T09:52:45;2.83;;;1.60;;
70967;SDS011;58629;48.808;8.820;2023-07-08T09:55:11;2.28;;;1.50;;
70967;SDS011;58629;48.808;8.820;2023-07-08T09:57:37;2.97;;;1.70;;
70967;SDS011;58629;48.808;8.820;2023-07-08T10:00:07;3.40;;;1.60;;
70967;SDS011;58629;48.808;8.820;2023-07-08T10:02:44;1.90;;;1.60;;
70967;SDS011;58629;48.808;8.820;2023-07-08T10:05:17;2.13;;;1.40;;
70967;SDS011;58629;48.808;8.820;2023-07-08T10:07:56;4.72;;;3.17;;
70967;SDS011;58629;48.808;8.820;2023-07-08T10:10:25;3.33;;;3.03;;
70967;SDS011;58629;48.808;8.820;2023-07-08T10:12:55;4.80;;;3.30;;
70967;SDS011;58629;48.808;8.820;2023-07-08T10:15:34;5.30;;;3.40;;
70967;SDS011;58629;48.808;8.820;2023-07-08T10:18:04;4.60;;;3.40;;
70967;SDS011;58629;48.808;8.820;2023-07-08T10:20:52;3.92;;;3.30;;
70967;SDS011;58629;48.808;8.820;2023-07-08T10:23:48;5.18;;;3.47;;
70967;SDS011;58629;48.808;8.820;2023-07-08T10:26:42;3.58;;;3.20;;
70967;SDS011;58629;48.808;8.820;2023-07-08T10:34:56;5.13;;;3.45;;
70967;SDS011;58629;48.808;8.820;2023-07-08T10:43:07;5.28;;;3.30;;
70967;SDS011;58629;48.808;8.820;2023-07-08T10:45:45;5.20;;;3.00;;
70967;SDS011;58629;48.808;8.820;2023-07-08T10:49:26;3.30;;;2.72;;
70967;SDS011;58629;48.808;8.820;2023-07-08T10:51:38;4.82;;;3.15;;
70967;SDS011;58629;48.808;8.820;2023-07-08T11:00:00;4.37;;;2.90;;
70967;SDS011;58629;48.808;8.820;2023-07-08T11:02:40;3.22;;;2.80;;
70967;SDS011;58629;48.808;8.820;2023-07-08T11:05:22;3.80;;;3.05;;
70967;SDS011;58629;48.808;8.820;2023-07-08T11:08:30;4.72;;;3.20;;
70967;SDS011;58629;48.808;8.820;2023-07-08T11:10:54;5.05;;;3.28;;
70967;SDS011;58629;48.808;8.820;2023-07-08T11:13:25;4.77;;;3.00;;
70967;SDS011;58629;48.808;8.820;2023-07-08T11:16:01;4.70;;;3.00;;
70967;SDS011;58629;48.808;8.820;2023-07-08T11:18:37;3.30;;;2.90;;
70967;SDS011;58629;48.808;8.820;2023-07-08T11:21:21;4.95;;;3.33;;
70967;SDS011;58629;48.808;8.820;2023-07-08T11:23:56;6.57;;;3.30;;
70967;SDS011;58629;48.808;8.820;2023-07-08T11:26:50;5.57;;;3.40;;
70967;SDS011;58629;48.808;8.820;2023-07-08T11:29:20;5.05;;;3.10;;
70967;SDS011;58629;48.808;8.820;2023-07-08T11:31:49;6.50;;;3.40;;
70967;SDS011;58629;48.808;8.820;2023-07-08T11:34:18;4.97;;;3.30;;
70967;SDS011;58629;48.808;8.820;2023-07-08T11:36:45;4.65;;;3.22;;
70967;SDS011;58629;48.808;8.820;2023-07-08T11:42:11;4.35;;;3.08;;
70967;SDS011;58629;48.808;8.820;2023-07-08T11:44:41;3.30;;;2.55;;
70967;SDS011;58629;48.808;8.820;2023-07-08T11:47:37;5.15;;;2.72;;
70967;SDS011;58629;48.808;8.820;2023-07-08T11:52:54;5.13;;;3.23;;
70967;SDS011;58629;48.808;8.820;2023-07-08T11:58:28;4.45;;;3.20;;
70967;SDS011;58629;48.808;8.820;2023-07-08T12:01:19;4.28;;;2.72;;
70967;SDS011;58629;48.808;8.820;2023-07-08T12:09:00;4.28;;;3.03;;
70967;SDS011;58629;48.808;8.820;2023-07-08T12:11:40;3.60;;;3.03;;
70967;SDS011;58629;48.808;8.820;2023-07-08T12:14:08;3.83;;;2.90;;
70967;SDS011;58629;48.808;8.820;2023-07-08T12:16:34;4.15;;;2.97;;
70967;SDS011;58629;48.808;8.820;2023-07-08T12:19:00;4.00;;;3.13;;
70967;SDS011;58629;48.808;8.820;2023-07-08T12:21:29;4.07;;;3.13;;
70967;SDS011;58629;48.808;8.820;2023-07-08T12:23:55;5.70;;;3.10;;
70967;SDS011;58629;48.808;8.820;2023-07-08T12:26:21;4.28;;;2.60;;
70967;SDS011;58629;48.808;8.820;2023-07-08T12:28:49;3.10;;;2.80;;
70967;SDS011;58629;48.808;8.820;2023-07-08T12:31:16;4.50;;;3.20;;
70967;SDS011;58629;48.808;8.820;2023-07-08T12:33:43;3.50;;;2.80;;
70967;SDS011;58629;48.808;8.820;2023-07-08T12:36:10;3.90;;;3.20;;
70967;SDS011;58629;48.808;8.820;2023-07-08T12:38:42;5.50;;;2.85;;
70967;SDS011;58629;48.808;8.820;2023-07-08T12:41:16;3.80;;;2.83;;
70967;SDS011;58629;48.808;8.820;2023-07-08T12:43:43;2.97;;;2.57;;
70967;SDS011;58629;48.808;8.820;2023-07-08T12:46:10;6.55;;;3.10;;
70967;SDS011;58629;48.808;8.820;2023-07-08T12:48:36;6.32;;;3.22;;
70967;SDS011;58629;48.808;8.820;2023-07-08T12:51:03;4.00;;;3.17;;
70967;SDS011;58629;48.808;8.820;2023-07-08T12:53:30;4.00;;;3.17;;
70967;SDS011;58629;48.808;8.820;2023-07-08T12:55:58;3.57;;;2.80;;
70967;SDS011;58629;48.808;8.820;2023-07-08T12:58:25;3.22;;;2.92;;
70967;SDS011;58629;48.808;8.820;2023-07-08T13:00:53;4.28;;;2.78;;
70967;SDS011;58629;48.808;8.820;2023-07-08T13:03:21;4.88;;;2.90;;
70967;SDS011;58629;48.808;8.820;2023-07-08T13:05:49;3.33;;;2.75;;
70967;SDS011;58629;48.808;8.820;2023-07-08T13:08:21;4.17;;;3.00;;
70967;SDS011;58629;48.808;8.820;2023-07-08T13:10:49;4.15;;;2.60;;
70967;SDS011;58629;48.808;8.820;2023-07-08T13:13:18;3.40;;;3.10;;
70967;SDS011;58629;48.808;8.820;2023-07-08T13:15:47;3.92;;;2.80;;
70967;SDS011;58629;48.808;8.820;2023-07-08T13:18:17;3.70;;;2.73;;
70967;SDS011;58629;48.808;8.820;2023-07-08T13:20:48;3.55;;;2.70;;
70967;SDS011;58629;48.808;8.820;2023-07-08T13:23:17;4.57;;;2.90;;
70967;SDS011;58629;48.808;8.820;2023-07-08T13:25:44;3.95;;;2.90;;
70967;SDS011;58629;48.808;8.820;2023-07-08T13:28:15;3.67;;;3.00;;
70967;SDS011;58629;48.808;8.820;2023-07-08T13:30:56;4.07;;;2.90;;
70967;SDS011;58629;48.808;8.820;2023-07-08T13:33:34;5.25;;;2.70;;
70967;SDS011;58629;48.808;8.820;2023-07-08T13:36:04;6.00;;;2.97;;
70967;SDS011;58629;48.808;8.820;2023-07-08T13:38:33;5.15;;;2.90;;
70967;SDS011;58629;48.808;8.820;2023-07-08T13:41:03;4.05;;;2.70;;
70967;SDS011;58629;48.808;8.820;2023-07-08T13:43:34;3.20;;;2.60;;
70967;SDS011;58629;48.808;8.820;2023-07-08T13:46:01;4.07;;;3.15;;
70967;SDS011;58629;48.808;8.820;2023-07-08T13:48:28;3.50;;;2.70;;
70967;SDS011;58629;48.808;8.820;2023-07-08T13:51:09;3.63;;;2.95;;
70967;SDS011;58629;48.808;8.820;2023-07-08T13:53:47;3.50;;;2.97;;
70967;SDS011;58629;48.808;8.820;2023-07-08T13:58:49;2.90;;;2.60;;
70967;SDS011;58629;48.808;8.820;2023-07-08T14:01:23;3.08;;;2.70;;
70967;SDS011;58629;48.808;8.820;2023-07-08T14:03:51;3.95;;;2.85;;
70967;SDS011;58629;48.808;8.820;2023-07-08T14:06:18;4.77;;;3.10;;
70967;SDS011;58629;48.808;8.820;2023-07-08T14:08:47;4.35;;;3.00;;
70967;SDS011;58629;48.808;8.820;2023-07-08T14:11:13;4.80;;;3.10;;
70967;SDS011;58629;48.808;8.820;2023-07-08T14:13:39;3.35;;;2.75;;
70967;SDS011;58629;48.808;8.820;2023-07-08T14:16:08;4.47;;;2.83;;
70967;SDS011;58629;48.808;8.820;2023-07-08T14:18:45;3.80;;;2.83;;
70967;SDS011;58629;48.808;8.820;2023-07-08T14:21:11;3.50;;;2.60;;
70967;SDS011;58629;48.808;8.820;2023-07-08T14:23:36;3.60;;;2.57;;
70967;SDS011;58629;48.808;8.820;2023-07-08T14:26:01;3.73;;;2.63;;
70967;SDS011;58629;48.808;8.820;2023-07-08T14:28:27;3.97;;;2.70;;
70967;SDS011;58629;48.808;8.820;2023-07-08T14:30:52;5.17;;;2.60;;
70967;SDS011;58629;48.808;8.820;2023-07-08T14:33:17;4.03;;;2.70;;
70967;SDS011;58629;48.808;8.820;2023-07-08T14:35:43;5.23;;;3.00;;
70967;SDS011;58629;48.808;8.820;2023-07-08T14:38:12;4.32;;;2.85;;
70967;SDS011;58629;48.808;8.820;2023-07-08T14:40:39;3.80;;;2.73;;
70967;SDS011;58629;48.808;8.820;2023-07-08T14:45:53;3.03;;;2.30;;
70967;SDS011;58629;48.808;8.820;2023-07-08T14:48:20;2.53;;;2.30;;
70967;SDS011;58629;48.808;8.820;2023-07-08T14:50:46;3.30;;;2.37;;
70967;SDS011;58629;48.808;8.820;2023-07-08T14:53:13;2.53;;;2.33;;
70967;SDS011;58629;48.808;8.820;2023-07-08T14:55:39;3.70;;;2.70;;
70967;SDS011;58629;48.808;8.820;2023-07-08T14:58:04;4.83;;;2.60;;
70967;SDS011;58629;48.808;8.820;2023-07-08T15:00:30;3.25;;;2.80;;
70967;SDS011;58629;48.808;8.820;2023-07-08T15:02:56;3.70;;;2.70;;
70967;SDS011;58629;48.808;8.820;2023-07-08T15:05:22;2.90;;;2.60;;
70967;SDS011;58629;48.808;8.820;2023-07-08T15:07:50;4.75;;;2.92;;
70967;SDS011;58629;48.808;8.820;2023-07-08T15:10:18;4.70;;;2.83;;
70967;SDS011;58629;48.808;8.820;2023-07-08T15:12:45;5.70;;;2.70;;
70967;SDS011;58629;48.808;8.820;2023-07-08T15:15:26;3.40;;;2.70;;
70967;SDS011;58629;48.808;8.820;2023-07-08T15:17:55;4.78;;;3.00;;
70967;SDS011;58629;48.808;8.820;2023-07-08T15:20:22;5.50;;;3.10;;
70967;SDS011;58629;48.808;8.820;2023-07-08T15:22:48;4.17;;;3.10;;
70967;SDS011;58629;48.808;8.820;2023-07-08T15:25:14;3.60;;;2.90;;
70967;SDS011;58629;48.808;8.820;2023-07-08T15:27:40;4.57;;;2.90;;
70967;SDS011;58629;48.808;8.820;2023-07-08T15:30:14;4.63;;;3.10;;
70967;SDS011;58629;48.808;8.820;2023-07-08T15:32:46;3.97;;;2.83;;
70967;SDS011;58629;48.808;8.820;2023-07-08T15:35:12;3.53;;;2.90;;
70967;SDS011;58629;48.808;8.820;2023-07-08T15:37:39;3.42;;;2.75;;
70967;SDS011;58629;48.808;8.820;2023-07-08T15:40:05;4.87;;;2.80;;
70967;SDS011;58629;48.808;8.820;2023-07-08T15:42:34;3.72;;;2.88;;
70967;SDS011;58629;48.808;8.820;2023-07-08T15:45:00;3.28;;;2.70;;
70967;SDS011;58629;48.808;8.820;2023-07-08T15:47:33;2.90;;;2.50;;
70967;SDS011;58629;48.808;8.820;2023-07-08T15:49:58;3.23;;;2.80;;
70967;SDS011;58629;48.808;8.820;2023-07-08T15:52:24;4.50;;;3.37;;
70967;SDS011;58629;48.808;8.820;2023-07-08T15:54:49;3.67;;;2.90;;
70967;SDS011;58629;48.808;8.820;2023-07-08T15:57:14;3.97;;;2.90;;